createdAt,value
2024-05-09T00:00:39.890Z,9.72
2024-05-09T00:03:08.368Z,10.04
2024-05-09T00:05:36.921Z,9.89
2024-05-09T00:08:04.381Z,9.94
2024-05-09T00:10:36.378Z,10.01
2024-05-09T00:13:06.293Z,9.99
2024-05-09T00:15:33.939Z,9.99
2024-05-09T00:18:01.253Z,9.99
2024-05-09T00:20:36.458Z,9.96
2024-05-09T00:23:11.076Z,10.07
2024-05-09T00:25:39.019Z,10.09
2024-05-09T00:28:06.221Z,9.93
2024-05-09T00:30:35.497Z,10.00
2024-05-09T00:33:08.253Z,9.96
2024-05-09T00:35:36.559Z,9.97
2024-05-09T00:38:03.978Z,10.04
2024-05-09T00:40:41.632Z,9.99
2024-05-09T00:43:14.594Z,9.95
2024-05-09T00:45:42.339Z,9.96
2024-05-09T00:48:13.426Z,10.01
2024-05-09T00:50:43.449Z,9.97
2024-05-09T00:53:11.665Z,9.96
2024-05-09T00:55:40.174Z,9.99
2024-05-09T00:58:09.569Z,9.99
2024-05-09T01:00:39.917Z,9.96
2024-05-09T01:03:10.291Z,9.95
2024-05-09T01:05:39.584Z,9.93
2024-05-09T01:08:07.352Z,9.99
2024-05-09T01:10:35.589Z,9.96
2024-05-09T01:13:04.253Z,9.93
2024-05-09T01:15:31.382Z,9.96
2024-05-09T01:18:00.901Z,9.89
2024-05-09T01:20:37.251Z,9.82
2024-05-09T01:23:09.941Z,9.91
2024-05-09T01:25:37.129Z,9.81
2024-05-09T01:28:03.937Z,9.81
2024-05-09T01:30:34.993Z,9.75
2024-05-09T01:33:05.638Z,9.83
2024-05-09T01:35:33.722Z,9.90
2024-05-09T01:38:00.496Z,9.73
2024-05-09T01:40:36.345Z,9.75
2024-05-09T01:43:06.092Z,9.86
2024-05-09T01:45:32.909Z,9.85
2024-05-09T01:47:59.882Z,9.83
2024-05-09T01:50:37.959Z,9.83
2024-05-09T01:53:09.627Z,9.83
2024-05-09T01:55:36.476Z,9.76
2024-05-09T01:58:03.129Z,9.88
2024-05-09T02:00:38.361Z,9.91
2024-05-09T02:03:12.663Z,9.89
2024-05-09T02:05:42.854Z,9.84
2024-05-09T02:08:20.962Z,9.90
2024-05-09T02:10:49.333Z,9.80
2024-05-09T02:13:20.246Z,9.89
2024-05-09T02:15:46.984Z,9.82
2024-05-09T02:18:14.253Z,9.85
2024-05-09T02:20:42.375Z,9.92
2024-05-09T02:23:09.956Z,9.90
2024-05-09T02:25:36.990Z,9.84
2024-05-09T02:28:03.762Z,9.79
2024-05-09T02:30:38.711Z,9.84
2024-05-09T02:33:13.009Z,9.78
2024-05-09T02:35:41.400Z,9.81
2024-05-09T02:38:09.451Z,9.91
2024-05-09T02:40:38.605Z,9.86
2024-05-09T02:43:09.066Z,9.79
2024-05-09T02:45:37.089Z,9.71
2024-05-09T02:48:04.165Z,9.68
2024-05-09T02:50:37.792Z,9.83
2024-05-09T02:53:13.841Z,9.88
2024-05-09T02:55:41.927Z,9.73
2024-05-09T02:58:09.228Z,9.82
2024-05-09T03:00:39.980Z,9.78
2024-05-09T03:03:14.187Z,9.88
2024-05-09T03:05:43.376Z,9.79
2024-05-09T03:08:10.286Z,9.74
2024-05-09T03:10:38.724Z,9.81
2024-05-09T03:13:12.765Z,9.91
2024-05-09T03:15:40.663Z,9.78
2024-05-09T03:18:07.639Z,9.81
2024-05-09T03:20:36.139Z,9.80
2024-05-09T03:23:05.200Z,9.74
2024-05-09T03:25:32.373Z,9.90
2024-05-09T03:27:59.428Z,9.88
2024-05-09T03:30:38.093Z,9.74
2024-05-09T03:33:17.671Z,9.82
2024-05-09T03:35:46.038Z,9.83
2024-05-09T03:38:12.807Z,9.90
2024-05-09T03:40:47.411Z,9.88
2024-05-09T03:43:14.833Z,9.91
2024-05-09T03:45:45.621Z,9.91
2024-05-09T03:48:13.018Z,9.79
2024-05-09T03:50:39.868Z,9.73
2024-05-09T03:53:10.567Z,9.81
2024-05-09T03:55:37.279Z,9.72
2024-05-09T03:58:14.825Z,9.78
2024-05-09T04:00:42.443Z,9.76
2024-05-09T04:03:11.401Z,9.89
2024-05-09T04:05:42.093Z,9.88
2024-05-09T04:08:10.263Z,9.77
2024-05-09T04:10:37.277Z,9.82
2024-05-09T04:13:04.403Z,9.80
2024-05-09T04:15:31.464Z,9.69
2024-05-09T04:17:58.463Z,9.77
2024-05-09T04:20:35.874Z,9.72
2024-05-09T04:23:07.241Z,9.84
2024-05-09T04:25:35.148Z,9.83
2024-05-09T04:28:01.819Z,9.86
2024-05-09T04:30:37.383Z,9.79
2024-05-09T04:33:09.276Z,9.78
2024-05-09T04:35:38.426Z,9.81
2024-05-09T04:38:05.749Z,9.84
2024-05-09T04:40:36.965Z,9.83
2024-05-09T04:43:14.497Z,9.89
2024-05-09T04:45:43.254Z,9.82
2024-05-09T04:48:10.205Z,9.80
2024-05-09T04:50:39.058Z,9.74
2024-05-09T04:53:09.267Z,9.88
2024-05-09T04:55:37.417Z,9.77
2024-05-09T04:58:05.278Z,9.94
2024-05-09T05:00:37.148Z,9.87
2024-05-09T05:03:13.896Z,9.58
2024-05-09T05:05:44.043Z,9.85
2024-05-09T05:08:13.241Z,9.58
2024-05-09T05:10:40.788Z,9.90
2024-05-09T05:13:18.249Z,9.51
2024-05-09T05:15:46.454Z,10.02
2024-05-09T05:18:15.155Z,10.02
2024-05-09T05:20:42.266Z,10.11
2024-05-09T05:23:14.212Z,10.12
2024-05-09T05:25:41.983Z,10.09
2024-05-09T05:28:08.662Z,10.05
2024-05-09T05:30:39.245Z,10.02
2024-05-09T05:33:07.168Z,10.19
2024-05-09T05:35:34.803Z,10.11
2024-05-09T05:38:02.273Z,10.23
2024-05-09T05:40:36.203Z,10.16
2024-05-09T05:43:18.569Z,10.15
2024-05-09T05:45:47.302Z,10.17
2024-05-09T05:48:16.848Z,10.26
2024-05-09T05:50:45.156Z,10.27
2024-05-09T05:53:12.170Z,10.17
2024-05-09T05:55:40.419Z,10.35
2024-05-09T05:58:12.040Z,10.38
2024-05-09T06:00:41.553Z,10.39
2024-05-09T06:03:10.220Z,10.41
2024-05-09T06:05:39.808Z,10.34
2024-05-09T06:08:07.346Z,10.39
2024-05-09T06:10:38.854Z,10.23
2024-05-09T06:13:10.486Z,10.56
2024-05-09T06:15:37.259Z,10.56
2024-05-09T06:18:09.073Z,10.70
2024-05-09T06:20:38.116Z,10.72
2024-05-09T06:23:06.965Z,10.83
2024-05-09T06:25:35.017Z,10.85
2024-05-09T06:28:02.053Z,10.90
2024-05-09T06:30:37.182Z,10.94
2024-05-09T06:33:07.817Z,11.01
2024-05-09T06:35:35.320Z,11.08
2024-05-09T06:38:02.592Z,11.20
2024-05-09T06:40:37.081Z,11.28
2024-05-09T06:43:11.297Z,11.06
2024-05-09T06:45:39.684Z,11.34
2024-05-09T06:48:07.464Z,11.36
2024-05-09T06:50:37.889Z,11.53
2024-05-09T06:53:06.305Z,11.54
2024-05-09T06:55:34.182Z,11.50
2024-05-09T06:58:00.957Z,11.51
2024-05-09T07:00:35.380Z,11.52
2024-05-09T07:03:16.052Z,11.77
2024-05-09T07:05:45.461Z,11.94
2024-05-09T07:08:13.251Z,12.04
2024-05-09T07:10:40.027Z,12.14
2024-05-09T07:13:14.273Z,12.12
2024-05-09T07:15:42.047Z,12.15
2024-05-09T07:18:13.936Z,12.16
2024-05-09T07:20:42.184Z,12.18
2024-05-09T07:23:10.619Z,12.22
2024-05-09T07:25:37.792Z,12.17
2024-05-09T07:28:04.840Z,12.40
2024-05-09T07:30:34.329Z,12.48
2024-05-09T07:33:05.371Z,12.63
2024-05-09T07:35:32.447Z,12.78
2024-05-09T07:37:59.505Z,12.96
2024-05-09T07:40:33.296Z,13.08
2024-05-09T07:43:13.239Z,12.75
2024-05-09T07:45:49.894Z,13.02
2024-05-09T07:53:39.233Z,13.15
2024-05-09T07:56:13.844Z,13.34
2024-05-09T07:58:43.382Z,13.73
2024-05-09T08:01:12.207Z,13.82
2024-05-09T08:03:39.162Z,14.15
2024-05-09T08:06:09.008Z,14.50
2024-05-09T08:08:35.669Z,14.18
2024-05-09T08:11:02.955Z,14.29
2024-05-09T08:13:29.708Z,14.25
2024-05-09T08:15:56.448Z,14.33
2024-05-09T08:18:23.438Z,14.18
2024-05-09T08:20:51.867Z,14.04
2024-05-09T08:23:19.526Z,14.13
2024-05-09T08:25:46.241Z,14.08
2024-05-09T08:28:13.083Z,13.91
2024-05-09T08:30:40.089Z,13.64
2024-05-09T08:33:07.770Z,13.65
2024-05-09T08:35:35.324Z,13.53
2024-05-09T08:38:06.784Z,13.29
2024-05-09T08:40:36.453Z,13.63
2024-05-09T08:43:10.460Z,13.61
2024-05-09T08:45:42.695Z,13.52
2024-05-09T08:48:12.412Z,13.46
2024-05-09T08:50:40.952Z,13.42
2024-05-09T08:53:08.574Z,13.71
2024-05-09T08:55:40.170Z,13.51
2024-05-09T08:58:12.740Z,13.48
2024-05-09T09:00:41.974Z,13.50
2024-05-09T09:03:12.783Z,13.38
2024-05-09T09:05:40.890Z,13.23
2024-05-09T09:08:08.747Z,13.12
2024-05-09T09:10:36.104Z,13.05
2024-05-09T09:13:09.620Z,13.18
2024-05-09T09:15:50.009Z,13.31
2024-05-09T09:18:19.867Z,13.19
2024-05-09T09:20:46.737Z,13.25
2024-05-09T09:23:14.109Z,12.94
2024-05-09T09:25:40.977Z,13.08
2024-05-09T09:28:12.681Z,13.17
2024-05-09T09:30:40.975Z,12.96
2024-05-09T09:33:12.009Z,13.06
2024-05-09T09:35:41.988Z,13.16
2024-05-09T09:38:10.641Z,13.17
2024-05-09T09:40:44.970Z,13.33
2024-05-09T09:43:22.101Z,13.25
2024-05-09T09:45:51.546Z,13.06
2024-05-09T09:48:20.284Z,13.13
2024-05-09T09:50:55.266Z,13.24
2024-05-09T09:53:23.171Z,13.21
2024-05-09T09:55:53.532Z,13.30
2024-05-09T09:58:21.566Z,13.46
2024-05-09T10:00:48.520Z,13.38
2024-05-09T10:03:16.188Z,13.30
2024-05-09T10:05:46.414Z,13.41
2024-05-09T10:08:18.203Z,13.52
2024-05-09T10:10:48.281Z,13.42
2024-05-09T10:13:15.208Z,13.50
2024-05-09T10:15:53.177Z,13.45
2024-05-09T10:18:46.767Z,13.52
2024-05-09T10:21:19.471Z,13.49
2024-05-09T10:24:03.495Z,13.57
2024-05-09T10:26:34.372Z,13.55
2024-05-09T10:29:14.139Z,13.57
2024-05-09T10:31:42.510Z,13.55
2024-05-09T10:34:20.862Z,13.68
2024-05-09T10:36:55.228Z,13.66
2024-05-09T10:39:22.425Z,13.62
2024-05-09T10:41:57.490Z,13.63
2024-05-09T10:44:24.180Z,13.67
2024-05-09T10:46:53.748Z,13.77
2024-05-09T10:49:21.714Z,13.65
2024-05-09T10:51:48.763Z,13.67
2024-05-09T10:54:15.716Z,13.65
2024-05-09T10:56:42.421Z,13.72
2024-05-09T10:59:09.015Z,13.81
2024-05-09T11:01:36.532Z,13.85
2024-05-09T11:04:04.079Z,13.91
2024-05-09T11:06:31.140Z,13.98
2024-05-09T11:08:58.100Z,13.90
2024-05-09T11:11:26.984Z,13.86
2024-05-09T11:13:53.628Z,13.91
2024-05-09T11:16:21.385Z,13.88
2024-05-09T11:18:56.414Z,13.94
2024-05-09T11:21:24.275Z,14.01
2024-05-09T11:23:51.327Z,13.92
2024-05-09T11:26:21.453Z,13.86
2024-05-09T11:28:48.260Z,13.87
2024-05-09T11:31:14.941Z,13.96
2024-05-09T11:33:47.751Z,13.92
2024-05-09T11:36:15.047Z,13.96
2024-05-09T11:38:41.884Z,14.02
2024-05-09T11:41:08.636Z,13.87
2024-05-09T11:43:35.288Z,13.89
2024-05-09T11:46:06.216Z,13.92
2024-05-09T11:48:33.025Z,13.80
2024-05-09T11:50:59.771Z,14.00
2024-05-09T11:53:26.403Z,13.92
2024-05-09T11:55:53.376Z,13.80
2024-05-09T11:58:21.428Z,13.80
2024-05-09T12:00:48.382Z,13.89
2024-05-09T12:03:15.237Z,13.87
2024-05-09T12:05:42.189Z,13.86
2024-05-09T12:08:10.062Z,13.79
2024-05-09T12:11:02.608Z,13.93
2024-05-09T12:13:29.288Z,13.75
2024-05-09T12:15:56.046Z,13.81
2024-05-09T12:18:24.811Z,14.02
2024-05-09T12:20:51.432Z,13.93
2024-05-09T12:23:22.179Z,14.07
2024-05-09T12:25:49.855Z,14.11
2024-05-09T12:28:16.809Z,14.12
2024-05-09T12:30:43.724Z,14.26
2024-05-09T12:33:12.535Z,14.31
2024-05-09T12:35:41.759Z,14.41
2024-05-09T12:38:09.808Z,14.28
2024-05-09T12:40:38.640Z,14.51
2024-05-09T12:43:08.111Z,14.50
2024-05-09T12:45:36.019Z,14.52
2024-05-09T12:48:06.874Z,14.51
2024-05-09T12:51:01.711Z,14.70
2024-05-09T12:53:28.347Z,14.91
2024-05-09T12:55:59.930Z,14.93
2024-05-09T12:58:29.055Z,14.89
2024-05-09T13:00:55.830Z,15.00
2024-05-09T13:03:22.784Z,15.02
2024-05-09T13:05:50.655Z,15.11
2024-05-09T13:08:17.680Z,15.03
2024-05-09T13:10:44.522Z,15.30
2024-05-09T13:13:11.590Z,15.12
2024-05-09T13:15:41.876Z,15.38
2024-05-09T13:18:11.861Z,15.49
2024-05-09T13:20:38.505Z,15.48
2024-05-09T13:23:07.846Z,15.36
2024-05-09T13:25:38.383Z,15.29
2024-05-09T13:28:06.000Z,15.28
2024-05-09T13:30:39.398Z,15.31
2024-05-09T13:33:11.687Z,15.47
2024-05-09T13:35:40.763Z,15.36
2024-05-09T13:38:08.807Z,15.42
2024-05-09T13:40:36.580Z,15.18
2024-05-09T13:43:04.903Z,15.37
2024-05-09T13:45:32.273Z,15.29
2024-05-09T13:48:06.544Z,15.44
2024-05-09T13:50:36.607Z,15.41
2024-05-09T13:53:08.406Z,15.45
2024-05-09T13:55:40.086Z,15.35
2024-05-09T13:58:08.142Z,15.37
2024-05-09T14:00:44.860Z,15.25
2024-05-09T14:03:20.819Z,15.34
2024-05-09T14:05:54.443Z,15.25
2024-05-09T14:08:22.791Z,15.53
2024-05-09T14:10:51.448Z,15.60
2024-05-09T14:13:18.503Z,15.25
2024-05-09T14:15:46.833Z,15.12
2024-05-09T14:18:14.440Z,15.13
2024-05-09T14:20:46.776Z,15.15
2024-05-09T14:23:14.391Z,15.44
2024-05-09T14:25:43.004Z,15.43
2024-05-09T14:28:21.922Z,15.42
2024-05-09T14:30:51.761Z,15.61
2024-05-09T14:33:23.670Z,15.66
2024-05-09T14:35:50.523Z,15.72
2024-05-09T14:38:18.298Z,15.86
2024-05-09T14:40:44.992Z,15.86
2024-05-09T14:43:13.456Z,15.88
2024-05-09T14:45:40.942Z,16.02
2024-05-09T14:48:09.860Z,15.99
2024-05-09T14:50:39.250Z,15.99
2024-05-09T14:53:08.151Z,15.97
2024-05-09T14:55:38.190Z,16.10
2024-05-09T14:58:07.321Z,16.12
2024-05-09T15:00:41.680Z,16.02
2024-05-09T15:03:11.738Z,16.01
2024-05-09T15:05:38.829Z,16.02
2024-05-09T15:08:07.006Z,15.77
2024-05-09T15:10:36.192Z,15.88
2024-05-09T15:13:04.682Z,15.84
2024-05-09T15:15:31.609Z,16.23
2024-05-09T15:17:59.085Z,16.37
2024-05-09T15:20:33.202Z,16.47
2024-05-09T15:23:02.902Z,16.44
2024-05-09T15:25:29.875Z,16.31
2024-05-09T15:27:56.911Z,16.12
2024-05-09T15:30:30.894Z,15.88
2024-05-09T15:33:00.899Z,15.88
2024-05-09T15:35:27.947Z,15.73
2024-05-09T15:37:55.063Z,15.63
2024-05-09T15:40:31.033Z,15.50
2024-05-09T15:43:05.707Z,15.28
2024-05-09T15:45:32.672Z,15.27
2024-05-09T15:48:00.317Z,15.41
2024-05-09T15:50:35.948Z,15.33
2024-05-09T15:53:06.992Z,15.18
2024-05-09T15:55:34.917Z,15.17
2024-05-09T15:58:03.198Z,15.05
2024-05-09T16:00:37.551Z,15.10
2024-05-09T16:03:08.627Z,15.17
2024-05-09T16:05:35.600Z,15.32
2024-05-09T16:08:02.823Z,15.38
2024-05-09T16:10:32.959Z,15.46
2024-05-09T16:13:02.286Z,15.56
2024-05-09T16:15:29.681Z,15.51
2024-05-09T16:17:59.322Z,15.51
2024-05-09T16:20:34.799Z,15.56
2024-05-09T16:23:06.584Z,15.57
2024-05-09T16:25:33.439Z,15.73
2024-05-09T16:28:01.750Z,15.78
2024-05-09T16:30:34.507Z,15.71
2024-05-09T16:33:04.273Z,15.79
2024-05-09T16:35:31.940Z,15.72
2024-05-09T16:37:58.735Z,15.74
2024-05-09T16:40:34.391Z,15.71
2024-05-09T16:43:06.288Z,15.67
2024-05-09T16:45:33.454Z,15.67
2024-05-09T16:48:01.490Z,15.69
2024-05-09T16:50:32.809Z,15.66
2024-05-09T16:53:02.678Z,15.77
2024-05-09T16:55:29.694Z,15.57
2024-05-09T16:57:57.468Z,15.63
2024-05-09T17:00:35.269Z,15.59
2024-05-09T17:03:08.518Z,15.53
2024-05-09T17:05:36.692Z,15.45
2024-05-09T17:08:04.195Z,15.48
2024-05-09T17:10:33.800Z,15.44
2024-05-09T17:13:05.500Z,15.38
2024-05-09T17:15:33.864Z,15.33
2024-05-09T17:18:01.801Z,15.29
2024-05-09T17:20:33.470Z,15.31
2024-05-09T17:23:03.869Z,15.23
2024-05-09T17:25:30.727Z,15.17
2024-05-09T17:27:59.592Z,15.12
2024-05-09T17:30:32.430Z,15.05
2024-05-09T17:33:07.810Z,14.96
2024-05-09T17:35:36.319Z,14.88
2024-05-09T17:38:03.186Z,14.85
2024-05-09T17:40:34.850Z,14.76
2024-05-09T17:43:04.819Z,14.68
2024-05-09T17:45:32.413Z,14.68
2024-05-09T17:47:59.634Z,14.63
2024-05-09T17:50:31.928Z,14.55
2024-05-09T17:53:02.972Z,14.60
2024-05-09T17:55:29.956Z,14.67
2024-05-09T17:57:57.447Z,14.57
2024-05-09T18:00:33.718Z,14.62
2024-05-09T18:03:06.391Z,14.59
2024-05-09T18:05:36.046Z,14.39
2024-05-09T18:08:03.663Z,14.59
2024-05-09T18:10:36.335Z,14.48
2024-05-09T18:13:07.104Z,14.36
2024-05-09T18:15:34.275Z,14.29
2024-05-09T18:18:02.030Z,14.28
2024-05-09T18:20:37.893Z,14.19
2024-05-09T18:23:10.711Z,14.11
2024-05-09T18:25:37.611Z,14.06
2024-05-09T18:28:05.165Z,13.93
2024-05-09T18:30:35.303Z,13.76
2024-05-09T18:33:05.398Z,13.56
2024-05-09T18:35:33.512Z,13.51
2024-05-09T18:38:00.518Z,13.33
2024-05-09T18:40:33.996Z,13.12
2024-05-09T18:43:05.493Z,13.17
2024-05-09T18:45:33.785Z,12.92
2024-05-09T18:48:00.851Z,12.83
2024-05-09T18:50:35.062Z,12.73
2024-05-09T18:53:12.635Z,12.60
2024-05-09T18:55:41.134Z,12.44
2024-05-09T18:58:07.929Z,12.40
2024-05-09T19:00:38.424Z,12.17
2024-05-09T19:03:13.057Z,12.09
2024-05-09T19:05:43.223Z,11.99
2024-05-09T19:08:11.147Z,11.94
2024-05-09T19:10:39.032Z,11.83
2024-05-09T19:13:10.891Z,11.85
2024-05-09T19:15:47.942Z,11.47
2024-05-09T19:18:15.451Z,11.61
2024-05-09T19:20:43.171Z,11.49
2024-05-09T19:23:11.637Z,11.57
2024-05-09T19:25:40.610Z,11.50
2024-05-09T19:28:07.413Z,11.38
2024-05-09T19:30:39.768Z,11.37
2024-05-09T19:33:10.808Z,11.27
2024-05-09T19:35:38.957Z,10.93
2024-05-09T19:38:06.099Z,11.10
2024-05-09T19:40:34.350Z,11.00
2024-05-09T19:43:03.037Z,10.99
2024-05-09T19:45:30.359Z,10.85
2024-05-09T19:47:57.488Z,10.84
2024-05-09T19:50:32.429Z,10.76
2024-05-09T19:53:08.562Z,10.71
2024-05-09T19:55:35.344Z,10.69
2024-05-09T19:58:05.215Z,10.64
2024-05-09T20:00:39.863Z,10.54
2024-05-09T20:03:10.210Z,10.54
2024-05-09T20:05:37.875Z,10.42
2024-05-09T20:08:05.951Z,10.46
2024-05-09T20:10:35.181Z,10.46
2024-05-09T20:13:04.579Z,10.42
2024-05-09T20:15:34.129Z,10.35
2024-05-09T20:18:01.128Z,10.36
2024-05-09T20:20:36.890Z,10.20
2024-05-09T20:23:07.454Z,10.15
2024-05-09T20:25:35.129Z,10.20
2024-05-09T20:28:01.913Z,10.10
2024-05-09T20:30:32.856Z,10.04
2024-05-09T20:33:06.973Z,10.04
2024-05-09T20:35:35.303Z,10.04
2024-05-09T20:38:03.236Z,10.28
2024-05-09T20:40:34.733Z,10.04
2024-05-09T20:43:05.265Z,10.01
2024-05-09T20:45:32.116Z,9.97
2024-05-09T20:47:59.086Z,9.80
2024-05-09T20:50:35.855Z,9.78
2024-05-09T20:53:09.592Z,9.82
2024-05-09T20:55:36.785Z,9.64
2024-05-09T20:58:03.556Z,9.39
2024-05-09T21:00:38.851Z,9.61
2024-05-09T21:03:09.310Z,9.52
2024-05-09T21:05:36.214Z,9.60
2024-05-09T21:08:03.173Z,9.53
2024-05-09T21:10:32.590Z,9.48
2024-05-09T21:13:00.599Z,9.56
2024-05-09T21:15:27.219Z,9.43
2024-05-09T21:17:53.824Z,9.39
2024-05-09T21:20:24.231Z,9.40
2024-05-09T21:22:57.466Z,9.30
2024-05-09T21:25:24.108Z,9.24
2024-05-09T21:27:50.837Z,9.24
2024-05-09T21:30:26.777Z,9.21
2024-05-09T21:32:59.617Z,9.19
2024-05-09T21:35:26.365Z,9.21
2024-05-09T21:37:53.003Z,9.10
2024-05-09T21:40:27.285Z,9.06
2024-05-09T21:43:01.096Z,9.13
2024-05-09T21:45:27.915Z,8.99
2024-05-09T21:47:54.783Z,8.97
2024-05-09T21:50:28.078Z,8.96
2024-05-09T21:52:59.203Z,8.86
2024-05-09T21:55:25.862Z,8.89
2024-05-09T21:57:52.499Z,8.82
2024-05-09T22:00:28.775Z,8.88
2024-05-09T22:03:02.472Z,8.84
2024-05-09T22:05:29.613Z,9.02
2024-05-09T22:07:57.023Z,8.82
2024-05-09T22:10:30.527Z,8.77
2024-05-09T22:13:00.876Z,8.58
2024-05-09T22:15:27.545Z,8.54
2024-05-09T22:17:56.354Z,8.83
2024-05-09T22:20:32.836Z,8.65
2024-05-09T22:23:04.094Z,8.54
2024-05-09T22:25:31.861Z,8.63
2024-05-09T22:27:59.187Z,8.58
2024-05-09T22:30:34.340Z,8.37
2024-05-09T22:33:05.806Z,8.35
2024-05-09T22:35:32.988Z,8.46
2024-05-09T22:37:59.781Z,8.26
2024-05-09T22:40:38.153Z,8.36
2024-05-09T22:43:13.122Z,8.29
2024-05-09T22:45:39.999Z,8.23
2024-05-09T22:48:08.087Z,8.21
2024-05-09T22:50:34.981Z,8.08
2024-05-09T22:53:01.714Z,8.15
2024-05-09T22:55:29.943Z,8.04
2024-05-09T22:57:56.608Z,8.04
2024-05-09T23:00:31.254Z,8.04
2024-05-09T23:03:00.453Z,8.00
2024-05-09T23:05:27.513Z,7.89
2024-05-09T23:07:54.276Z,7.96
2024-05-09T23:10:27.302Z,7.97
2024-05-09T23:12:58.828Z,7.83
2024-05-09T23:15:25.587Z,7.74
2024-05-09T23:17:52.403Z,7.83
2024-05-09T23:20:29.747Z,7.80
2024-05-09T23:23:03.587Z,7.74
2024-05-09T23:25:30.282Z,7.72
2024-05-09T23:27:57.072Z,7.63
2024-05-09T23:30:33.320Z,7.63
2024-05-09T23:33:05.702Z,7.72
2024-05-09T23:35:32.494Z,7.68
2024-05-09T23:37:59.204Z,7.58
2024-05-09T23:40:36.884Z,7.57
2024-05-09T23:43:06.976Z,7.61
2024-05-09T23:45:34.013Z,7.50
2024-05-09T23:48:01.167Z,7.39
2024-05-09T23:50:34.392Z,7.50
2024-05-09T23:53:04.675Z,7.31
2024-05-09T23:55:32.036Z,7.31
2024-05-09T23:57:59.206Z,7.29
